createdAt,value
2023-03-27T00:00:08.455Z,0.00
2023-03-27T00:01:08.458Z,0.00
2023-03-27T00:02:08.570Z,0.00
2023-03-27T00:03:08.497Z,0.00
2023-03-27T00:04:08.472Z,0.00
2023-03-27T00:05:08.425Z,0.00
2023-03-27T00:06:08.377Z,0.00
2023-03-27T00:07:08.360Z,0.00
2023-03-27T00:08:08.354Z,0.00
2023-03-27T00:09:08.350Z,0.00
2023-03-27T00:10:08.381Z,0.00
2023-03-27T00:11:08.453Z,0.00
2023-03-27T00:12:08.330Z,0.00
2023-03-27T00:13:08.306Z,0.00
2023-03-27T00:14:08.304Z,0.00
2023-03-27T00:15:08.296Z,0.00
2023-03-27T00:16:08.309Z,0.00
2023-03-27T00:17:08.271Z,0.00
2023-03-27T00:18:08.294Z,0.00
2023-03-27T00:19:08.231Z,0.00
2023-03-27T00:20:08.247Z,0.00
2023-03-27T00:21:08.258Z,0.00
2023-03-27T00:22:08.213Z,0.00
2023-03-27T00:23:08.186Z,0.00
2023-03-27T00:24:08.192Z,0.00
2023-03-27T00:25:08.168Z,0.00
2023-03-27T00:26:08.185Z,0.00
2023-03-27T00:27:08.152Z,0.00
2023-03-27T00:28:08.161Z,0.00
2023-03-27T00:29:08.241Z,0.00
2023-03-27T00:30:08.109Z,0.00
2023-03-27T00:31:08.133Z,0.00
2023-03-27T00:32:08.104Z,0.00
2023-03-27T00:33:08.105Z,0.00
2023-03-27T00:34:08.075Z,0.00
2023-03-27T00:35:08.052Z,0.00
2023-03-27T00:36:08.081Z,0.00
2023-03-27T00:37:08.037Z,0.00
2023-03-27T00:38:08.027Z,0.00
2023-03-27T00:39:08.040Z,0.00
2023-03-27T00:40:08.024Z,0.00
2023-03-27T00:41:08.121Z,0.00
2023-03-27T00:42:07.970Z,0.00
2023-03-27T00:43:07.970Z,0.00
2023-03-27T00:44:07.962Z,0.00
2023-03-27T00:45:07.985Z,0.00
2023-03-27T00:46:08.126Z,0.00
2023-03-27T00:47:07.922Z,0.00
2023-03-27T00:48:08.006Z,0.00
2023-03-27T00:49:07.898Z,0.00
2023-03-27T00:50:07.899Z,0.00
2023-03-27T00:51:07.879Z,0.00
2023-03-27T00:52:07.917Z,0.00
2023-03-27T00:53:07.862Z,0.00
2023-03-27T00:54:07.834Z,0.00
2023-03-27T00:55:07.837Z,0.00
2023-03-27T00:56:07.812Z,0.00
2023-03-27T00:57:07.898Z,0.00
2023-03-27T00:58:07.819Z,0.00
2023-03-27T00:59:07.792Z,0.00
2023-03-27T01:00:09.508Z,0.00
2023-03-27T01:01:07.832Z,0.00
2023-03-27T01:02:07.753Z,0.00
2023-03-27T01:03:07.807Z,0.00
2023-03-27T01:04:07.733Z,0.00
2023-03-27T01:05:07.715Z,0.00
2023-03-27T01:06:07.731Z,0.00
2023-03-27T01:07:07.704Z,0.00
2023-03-27T01:08:07.718Z,0.00
2023-03-27T01:09:07.664Z,0.00
2023-03-27T01:10:07.682Z,0.00
2023-03-27T01:11:07.675Z,0.00
2023-03-27T01:12:07.645Z,0.00
2023-03-27T01:13:07.612Z,0.00
2023-03-27T01:14:07.620Z,0.00
2023-03-27T01:15:07.598Z,0.00
2023-03-27T01:16:07.646Z,0.00
2023-03-27T01:17:07.601Z,0.00
2023-03-27T01:18:07.613Z,0.00
2023-03-27T01:19:07.545Z,0.00
2023-03-27T01:20:07.545Z,0.00
2023-03-27T01:21:07.523Z,0.00
2023-03-27T01:22:07.567Z,0.00
2023-03-27T01:23:07.517Z,0.00
2023-03-27T01:24:07.536Z,0.00
2023-03-27T01:25:07.488Z,0.00
2023-03-27T01:26:07.509Z,0.00
2023-03-27T01:27:07.488Z,0.00
2023-03-27T01:28:07.448Z,0.00
2023-03-27T01:29:07.434Z,0.00
2023-03-27T01:30:07.447Z,0.00
2023-03-27T01:31:07.460Z,0.00
2023-03-27T01:32:07.402Z,0.00
2023-03-27T01:33:07.498Z,0.00
2023-03-27T01:34:07.393Z,0.00
2023-03-27T01:35:07.391Z,0.00
2023-03-27T01:36:07.376Z,0.00
2023-03-27T01:37:07.363Z,0.00
2023-03-27T01:38:07.362Z,0.00
2023-03-27T01:39:07.334Z,0.00
2023-03-27T01:40:07.339Z,0.00
2023-03-27T01:41:07.326Z,0.00
2023-03-27T01:42:07.294Z,0.00
2023-03-27T01:43:07.294Z,0.00
2023-03-27T01:44:07.289Z,0.00
2023-03-27T01:45:07.272Z,0.00
2023-03-27T01:46:07.331Z,0.00
2023-03-27T01:47:07.244Z,0.00
2023-03-27T01:48:07.276Z,0.00
2023-03-27T01:49:07.218Z,0.00
2023-03-27T01:50:07.206Z,0.00
2023-03-27T01:51:07.225Z,0.00
2023-03-27T01:52:07.180Z,0.00
2023-03-27T01:53:07.170Z,0.00
2023-03-27T01:54:07.156Z,0.00
2023-03-27T01:55:07.153Z,0.00
2023-03-27T01:56:07.198Z,0.00
2023-03-27T01:57:07.157Z,0.00
2023-03-27T01:58:07.133Z,0.00
2023-03-27T01:59:07.110Z,0.00
2023-03-27T02:00:17.494Z,0.00
2023-03-27T02:01:08.338Z,0.00
2023-03-27T02:02:07.064Z,0.00
2023-03-27T02:03:07.070Z,0.00
2023-03-27T02:04:07.071Z,0.00
2023-03-27T02:05:07.064Z,0.00
2023-03-27T02:06:07.033Z,0.00
2023-03-27T02:07:07.012Z,0.00
2023-03-27T02:08:07.013Z,0.00
2023-03-27T02:09:07.008Z,0.00
2023-03-27T02:10:06.989Z,0.00
2023-03-27T02:11:06.989Z,0.00
2023-03-27T02:12:06.974Z,0.00
2023-03-27T02:13:06.947Z,0.00
2023-03-27T02:14:06.948Z,0.00
2023-03-27T02:15:26.171Z,0.00
2023-03-27T02:16:07.948Z,0.00
2023-03-27T02:17:06.905Z,0.00
2023-03-27T02:18:06.894Z,0.00
2023-03-27T02:19:06.893Z,0.00
2023-03-27T02:20:06.865Z,0.00
2023-03-27T02:21:06.879Z,0.00
2023-03-27T02:22:06.842Z,0.00
2023-03-27T02:23:06.852Z,0.00
2023-03-27T02:24:06.832Z,0.00
2023-03-27T02:25:06.813Z,0.00
2023-03-27T02:26:06.811Z,0.00
2023-03-27T02:27:06.839Z,0.00
2023-03-27T02:28:06.811Z,0.00
2023-03-27T02:29:06.788Z,0.00
2023-03-27T02:30:06.759Z,0.00
2023-03-27T02:31:32.900Z,0.00
2023-03-27T02:32:07.806Z,0.00
2023-03-27T02:33:06.757Z,0.00
2023-03-27T02:34:06.713Z,0.00
2023-03-27T02:35:06.702Z,0.00
2023-03-27T02:36:07.253Z,0.00
2023-03-27T02:37:06.680Z,0.00
2023-03-27T02:38:06.675Z,0.00
2023-03-27T02:39:06.672Z,0.00
2023-03-27T02:40:06.662Z,0.00
2023-03-27T02:41:06.633Z,0.00
2023-03-27T02:42:06.650Z,0.00
2023-03-27T02:43:06.635Z,0.00
2023-03-27T02:44:06.644Z,0.00
2023-03-27T02:45:06.604Z,0.00
2023-03-27T02:46:06.617Z,0.00
2023-03-27T02:47:06.602Z,0.00
2023-03-27T02:48:06.620Z,0.00
2023-03-27T02:49:06.562Z,0.00
2023-03-27T02:50:06.540Z,0.00
2023-03-27T02:51:06.527Z,0.00
2023-03-27T02:52:06.511Z,0.00
2023-03-27T02:53:06.519Z,0.00
2023-03-27T02:54:06.501Z,0.00
2023-03-27T02:55:06.552Z,0.00
2023-03-27T02:56:06.483Z,0.00
2023-03-27T02:57:06.505Z,0.00
2023-03-27T02:58:06.470Z,0.00
2023-03-27T02:59:06.453Z,0.00
2023-03-27T03:00:06.455Z,0.00
2023-03-27T03:01:06.479Z,0.00
2023-03-27T03:02:06.452Z,0.00
2023-03-27T03:03:06.441Z,0.00
2023-03-27T03:04:06.384Z,0.00
2023-03-27T03:05:06.392Z,0.00
2023-03-27T03:06:06.355Z,0.00
2023-03-27T03:07:06.454Z,0.00
2023-03-27T03:08:06.335Z,0.00
2023-03-27T03:09:06.339Z,0.00
2023-03-27T03:10:07.003Z,0.00
2023-03-27T03:11:06.318Z,0.00
2023-03-27T03:12:06.315Z,0.00
2023-03-27T03:13:06.291Z,0.00
2023-03-27T03:14:06.288Z,0.00
2023-03-27T03:15:06.264Z,0.00
2023-03-27T03:16:06.298Z,0.00
2023-03-27T03:17:06.270Z,0.00
2023-03-27T03:18:06.282Z,0.00
2023-03-27T03:19:06.230Z,0.00
2023-03-27T03:20:06.230Z,0.00
2023-03-27T03:21:06.211Z,0.00
2023-03-27T03:22:06.180Z,0.00
2023-03-27T03:23:06.184Z,0.00
2023-03-27T03:24:06.156Z,0.00
2023-03-27T03:25:06.144Z,0.00
2023-03-27T03:26:06.145Z,0.00
2023-03-27T03:27:06.137Z,0.00
2023-03-27T03:28:06.415Z,0.00
2023-03-27T03:29:06.099Z,0.00
2023-03-27T03:30:06.103Z,0.00
2023-03-27T03:31:06.137Z,0.00
2023-03-27T03:32:06.087Z,0.00
2023-03-27T03:33:06.144Z,0.00
2023-03-27T03:34:06.064Z,0.00
2023-03-27T03:35:06.047Z,0.00
2023-03-27T03:36:06.101Z,0.00
2023-03-27T03:37:06.013Z,0.00
2023-03-27T03:38:06.031Z,0.00
2023-03-27T03:39:06.008Z,0.00
2023-03-27T03:40:05.991Z,0.00
2023-03-27T03:41:05.970Z,0.00
2023-03-27T03:42:05.970Z,0.00
2023-03-27T03:43:05.980Z,0.00
2023-03-27T03:44:05.930Z,0.00
2023-03-27T03:45:05.938Z,0.00
2023-03-27T03:46:05.988Z,0.00
2023-03-27T03:47:05.914Z,0.00
2023-03-27T03:48:05.963Z,0.00
2023-03-27T03:49:05.881Z,0.00
2023-03-27T03:50:05.877Z,0.00
2023-03-27T03:51:05.860Z,0.00
2023-03-27T03:52:05.846Z,0.00
2023-03-27T03:53:05.863Z,0.00
2023-03-27T03:54:05.820Z,0.00
2023-03-27T03:55:05.834Z,0.00
2023-03-27T03:56:05.810Z,0.00
2023-03-27T03:57:05.834Z,0.00
2023-03-27T03:58:05.797Z,0.00
2023-03-27T03:59:05.763Z,0.00
2023-03-27T04:00:05.764Z,0.00
2023-03-27T04:01:05.746Z,0.00
2023-03-27T04:02:05.766Z,0.00
2023-03-27T04:03:05.820Z,0.00
2023-03-27T04:04:05.739Z,0.00
2023-03-27T04:05:08.705Z,0.00
2023-03-27T04:06:05.820Z,0.00
2023-03-27T04:07:05.712Z,0.00
2023-03-27T04:08:05.708Z,0.00
2023-03-27T04:09:05.652Z,0.00
2023-03-27T04:10:05.650Z,0.00
2023-03-27T04:11:05.642Z,0.00
2023-03-27T04:12:05.618Z,0.00
2023-03-27T04:13:05.640Z,0.00
2023-03-27T04:14:05.603Z,0.00
2023-03-27T04:15:05.610Z,0.00
2023-03-27T04:16:05.614Z,0.00
2023-03-27T04:17:05.567Z,0.00
2023-03-27T04:18:05.680Z,0.00
2023-03-27T04:19:05.541Z,0.00
2023-03-27T04:20:05.564Z,0.00
2023-03-27T04:21:05.529Z,0.00
2023-03-27T04:22:05.505Z,0.00
2023-03-27T04:23:05.521Z,0.00
2023-03-27T04:24:05.496Z,0.00
2023-03-27T04:25:05.472Z,0.00
2023-03-27T04:26:05.498Z,0.00
2023-03-27T04:27:05.460Z,0.00
2023-03-27T04:28:05.487Z,0.00
2023-03-27T04:29:05.439Z,0.00
2023-03-27T04:30:05.417Z,0.00
2023-03-27T04:31:05.449Z,0.00
2023-03-27T04:32:05.406Z,0.00
2023-03-27T04:33:06.275Z,0.00
2023-03-27T04:34:05.394Z,0.00
2023-03-27T04:35:05.376Z,0.00
2023-03-27T04:36:07.789Z,0.00
2023-03-27T04:37:05.366Z,0.00
2023-03-27T04:38:05.386Z,0.00
2023-03-27T04:39:05.357Z,0.00
2023-03-27T04:40:05.336Z,0.00
2023-03-27T04:41:05.308Z,0.00
2023-03-27T04:42:05.284Z,0.00
2023-03-27T04:43:05.303Z,0.00
2023-03-27T04:44:05.283Z,0.00
2023-03-27T04:45:05.283Z,0.00
2023-03-27T04:46:05.256Z,0.00
2023-03-27T04:47:06.776Z,0.00
2023-03-27T04:48:05.346Z,0.00
2023-03-27T04:49:05.234Z,0.00
2023-03-27T04:50:05.200Z,0.00
2023-03-27T04:51:05.197Z,0.00
2023-03-27T04:52:05.210Z,0.00
2023-03-27T04:53:05.184Z,0.00
2023-03-27T04:54:05.205Z,0.00
2023-03-27T04:55:05.170Z,0.00
2023-03-27T04:56:05.143Z,0.00
2023-03-27T04:57:05.301Z,0.00
2023-03-27T04:58:05.138Z,0.00
2023-03-27T04:59:05.116Z,0.00
2023-03-27T05:00:05.092Z,0.00
2023-03-27T05:01:05.094Z,0.00
2023-03-27T05:02:05.075Z,0.00
2023-03-27T05:03:05.185Z,0.00
2023-03-27T05:04:05.126Z,0.00
2023-03-27T05:05:05.048Z,0.00
2023-03-27T05:06:05.053Z,0.00
2023-03-27T05:07:05.018Z,0.00
2023-03-27T05:08:05.096Z,0.00
2023-03-27T05:09:04.983Z,0.00
2023-03-27T05:10:04.972Z,0.00
2023-03-27T05:11:04.986Z,0.00
2023-03-27T05:12:04.960Z,0.00
2023-03-27T05:13:04.964Z,0.00
2023-03-27T05:14:04.948Z,0.00
2023-03-27T05:15:04.927Z,0.00
2023-03-27T05:16:04.924Z,0.00
2023-03-27T05:17:04.908Z,0.00
2023-03-27T05:18:05.009Z,0.00
2023-03-27T05:19:04.892Z,0.00
2023-03-27T05:20:04.855Z,0.00
2023-03-27T05:21:04.870Z,0.00
2023-03-27T05:22:04.836Z,0.00
2023-03-27T05:23:04.860Z,0.00
2023-03-27T05:24:04.882Z,0.00
2023-03-27T05:25:04.807Z,0.00
2023-03-27T05:26:04.804Z,0.00
2023-03-27T05:27:04.796Z,0.00
2023-03-27T05:28:04.779Z,0.00
2023-03-27T05:29:04.777Z,5.62
2023-03-27T05:30:04.755Z,5.62
2023-03-27T05:31:04.787Z,5.62
2023-03-27T05:32:04.728Z,5.62
2023-03-27T05:33:04.772Z,5.62
2023-03-27T05:34:04.718Z,5.62
2023-03-27T05:35:04.850Z,5.62
2023-03-27T05:36:04.749Z,5.62
2023-03-27T05:37:04.676Z,5.62
2023-03-27T05:38:04.664Z,5.62
2023-03-27T05:39:04.651Z,11.25
2023-03-27T05:40:04.720Z,11.25
2023-03-27T05:41:04.644Z,11.25
2023-03-27T05:42:04.622Z,11.25
2023-03-27T05:43:04.651Z,11.25
2023-03-27T05:44:04.585Z,11.25
2023-03-27T05:45:04.582Z,11.25
2023-03-27T05:46:04.618Z,11.25
2023-03-27T05:47:04.563Z,11.25
2023-03-27T05:48:04.673Z,11.25
2023-03-27T05:49:04.554Z,11.25
2023-03-27T05:50:04.531Z,16.88
2023-03-27T05:51:04.516Z,16.88
2023-03-27T05:52:04.517Z,16.88
2023-03-27T05:53:04.521Z,16.88
2023-03-27T05:54:04.515Z,22.50
2023-03-27T05:55:04.475Z,22.50
2023-03-27T05:56:04.484Z,22.50
2023-03-27T05:57:04.534Z,28.12
2023-03-27T05:58:04.444Z,28.12
2023-03-27T05:59:04.507Z,28.12
2023-03-27T06:00:04.436Z,33.75
2023-03-27T06:01:04.427Z,33.75
2023-03-27T06:02:04.415Z,33.75
2023-03-27T06:03:04.550Z,33.75
2023-03-27T06:04:04.571Z,39.38
2023-03-27T06:05:04.359Z,50.62
2023-03-27T06:06:04.352Z,45.00
2023-03-27T06:07:04.347Z,39.38
2023-03-27T06:08:04.547Z,50.62
2023-03-27T06:09:04.322Z,56.25
2023-03-27T06:10:04.307Z,56.25
2023-03-27T06:11:04.311Z,56.25
2023-03-27T06:12:04.390Z,73.12
2023-03-27T06:13:04.545Z,78.75
2023-03-27T06:14:04.262Z,78.75
2023-03-27T06:15:04.253Z,78.75
2023-03-27T06:16:04.265Z,78.75
2023-03-27T06:17:04.249Z,78.75
2023-03-27T06:18:04.486Z,56.25
2023-03-27T06:19:04.223Z,50.62
2023-03-27T06:20:04.194Z,45.00
2023-03-27T06:21:04.194Z,39.38
2023-03-27T06:22:04.186Z,39.38
2023-03-27T06:23:04.542Z,61.88
2023-03-27T06:24:04.171Z,45.00
2023-03-27T06:25:04.149Z,50.62
2023-03-27T06:26:04.137Z,61.88
2023-03-27T06:27:04.106Z,78.75
2023-03-27T06:28:04.189Z,67.50
2023-03-27T06:29:08.034Z,50.62
2023-03-27T06:30:04.104Z,50.62
2023-03-27T06:31:04.149Z,28.12
2023-03-27T06:32:04.055Z,28.12
2023-03-27T06:33:04.129Z,28.12
2023-03-27T06:34:04.053Z,28.12
2023-03-27T06:35:04.033Z,45.00
2023-03-27T06:36:04.057Z,45.00
2023-03-27T06:37:04.004Z,45.00
2023-03-27T06:38:04.064Z,45.00
2023-03-27T06:39:03.972Z,45.00
2023-03-27T06:40:03.968Z,45.00
2023-03-27T06:41:03.976Z,45.00
2023-03-27T06:42:03.947Z,50.62
2023-03-27T06:43:04.240Z,50.62
2023-03-27T06:44:03.956Z,56.25
2023-03-27T06:45:03.907Z,84.38
2023-03-27T06:46:03.951Z,61.88
2023-03-27T06:47:04.440Z,73.12
2023-03-27T06:48:17.932Z,101.25
2023-03-27T06:49:04.891Z,106.88
2023-03-27T06:50:03.871Z,95.62
2023-03-27T06:51:03.859Z,95.62
2023-03-27T06:52:03.851Z,67.50
2023-03-27T06:53:05.846Z,73.12
2023-03-27T06:54:03.810Z,67.50
2023-03-27T06:55:03.799Z,67.50
2023-03-27T06:56:03.810Z,73.12
2023-03-27T06:57:03.929Z,67.50
2023-03-27T06:58:03.804Z,67.50
2023-03-27T06:59:03.772Z,56.25
2023-03-27T07:00:03.876Z,50.62
2023-03-27T07:01:03.758Z,45.00
2023-03-27T07:02:03.756Z,45.00
2023-03-27T07:03:03.783Z,50.62
2023-03-27T07:04:03.711Z,45.00
2023-03-27T07:05:05.302Z,61.88
2023-03-27T07:06:03.799Z,45.00
2023-03-27T07:07:03.669Z,45.00
2023-03-27T07:08:15.123Z,50.62
2023-03-27T07:09:04.660Z,84.38
2023-03-27T07:10:03.627Z,73.12
2023-03-27T07:11:11.727Z,61.88
2023-03-27T07:12:04.666Z,67.50
2023-03-27T07:13:03.606Z,61.88
2023-03-27T07:14:03.602Z,61.88
2023-03-27T07:15:03.578Z,61.88
2023-03-27T07:16:03.862Z,61.88
2023-03-27T07:17:03.552Z,84.38
2023-03-27T07:18:03.610Z,90.00
2023-03-27T07:19:03.537Z,95.62
2023-03-27T07:20:03.524Z,101.25
2023-03-27T07:21:03.526Z,101.25
2023-03-27T07:22:03.498Z,101.25
2023-03-27T07:23:03.492Z,101.25
2023-03-27T07:24:03.475Z,140.62
2023-03-27T07:25:03.461Z,101.25
2023-03-27T07:26:03.459Z,146.25
2023-03-27T07:27:03.437Z,151.88
2023-03-27T07:28:05.689Z,146.25
2023-03-27T07:29:03.437Z,112.50
2023-03-27T07:30:03.411Z,140.62
2023-03-27T07:31:03.997Z,123.75
2023-03-27T07:32:07.107Z,151.88
2023-03-27T07:33:04.432Z,146.25
2023-03-27T07:34:03.555Z,129.38
2023-03-27T07:35:03.358Z,106.88
2023-03-27T07:36:03.387Z,95.62
2023-03-27T07:37:03.322Z,90.00
2023-03-27T07:38:03.312Z,95.62
2023-03-27T07:39:03.329Z,151.88
2023-03-27T07:40:03.291Z,146.25
2023-03-27T07:41:03.302Z,123.75
2023-03-27T07:42:03.394Z,118.12
2023-03-27T07:43:03.264Z,95.62
2023-03-27T07:44:03.270Z,112.50
2023-03-27T07:45:04.557Z,135.00
2023-03-27T07:46:03.365Z,140.62
2023-03-27T07:47:03.298Z,157.50
2023-03-27T07:48:03.378Z,185.62
2023-03-27T07:49:03.199Z,180.00
2023-03-27T07:50:03.176Z,157.50
2023-03-27T07:51:13.296Z,168.75
2023-03-27T07:52:04.180Z,146.25
2023-03-27T07:53:03.166Z,118.12
2023-03-27T07:54:03.161Z,135.00
2023-03-27T07:55:03.132Z,135.00
2023-03-27T07:56:03.116Z,135.00
2023-03-27T07:57:03.166Z,135.00
2023-03-27T07:58:03.673Z,146.25
2023-03-27T07:59:03.094Z,135.00
2023-03-27T08:00:03.069Z,112.50
2023-03-27T08:01:03.057Z,135.00
2023-03-27T08:02:03.056Z,135.00
2023-03-27T08:03:03.187Z,118.12
2023-03-27T08:04:03.217Z,135.00
2023-03-27T08:05:03.198Z,135.00
2023-03-27T08:06:03.011Z,135.00
2023-03-27T08:07:02.994Z,140.62
2023-03-27T08:08:02.980Z,140.62
2023-03-27T08:09:03.102Z,140.62
2023-03-27T08:10:02.987Z,146.25
2023-03-27T08:11:02.947Z,180.00
2023-03-27T08:12:02.937Z,157.50
2023-03-27T08:13:02.926Z,106.88
2023-03-27T08:14:02.962Z,191.25
2023-03-27T08:15:02.908Z,191.25
2023-03-27T08:16:02.899Z,129.38
2023-03-27T08:17:12.819Z,90.00
2023-03-27T08:18:03.909Z,101.25
2023-03-27T08:19:02.859Z,101.25
2023-03-27T08:20:02.885Z,106.88
2023-03-27T08:21:02.840Z,118.12
2023-03-27T08:22:02.828Z,146.25
2023-03-27T08:23:02.817Z,202.50
2023-03-27T08:24:02.825Z,191.25
2023-03-27T08:25:02.774Z,106.88
2023-03-27T08:26:02.806Z,202.50
2023-03-27T08:27:02.767Z,213.75
2023-03-27T08:28:02.767Z,202.50
2023-03-27T08:29:02.731Z,196.88
2023-03-27T08:30:02.741Z,73.12
2023-03-27T08:31:03.355Z,90.00
2023-03-27T08:32:02.712Z,247.50
2023-03-27T08:33:02.777Z,230.62
2023-03-27T08:34:02.719Z,78.75
2023-03-27T08:35:02.677Z,73.12
2023-03-27T08:36:02.738Z,78.75
2023-03-27T08:37:02.645Z,101.25
2023-03-27T08:38:02.641Z,253.12
2023-03-27T08:39:02.774Z,208.12
2023-03-27T08:40:02.618Z,95.62
2023-03-27T08:41:02.610Z,112.50
2023-03-27T08:42:02.601Z,202.50
2023-03-27T08:43:02.582Z,101.25
2023-03-27T08:44:02.602Z,275.62
2023-03-27T08:45:02.576Z,275.62
2023-03-27T08:46:02.569Z,258.75
2023-03-27T08:47:02.564Z,275.62
2023-03-27T08:48:02.581Z,230.62
2023-03-27T08:49:02.526Z,258.75
2023-03-27T08:50:02.527Z,118.12
2023-03-27T08:51:02.524Z,112.50
2023-03-27T08:52:02.502Z,135.00
2023-03-27T08:53:02.479Z,135.00
2023-03-27T08:54:02.483Z,90.00
2023-03-27T08:55:02.459Z,61.88
2023-03-27T08:56:02.444Z,106.88
2023-03-27T08:57:02.506Z,118.12
2023-03-27T08:58:02.426Z,151.88
2023-03-27T08:59:02.456Z,112.50
2023-03-27T09:00:02.423Z,135.00
2023-03-27T09:01:02.390Z,90.00
2023-03-27T09:02:02.503Z,146.25
2023-03-27T09:03:02.499Z,191.25
2023-03-27T09:04:02.479Z,174.38
2023-03-27T09:05:02.336Z,146.25
2023-03-27T09:06:02.327Z,118.12
2023-03-27T09:07:02.339Z,78.75
2023-03-27T09:08:02.346Z,56.25
2023-03-27T09:09:02.317Z,56.25
2023-03-27T09:10:02.292Z,45.00
2023-03-27T09:11:02.288Z,33.75
2023-03-27T09:12:02.257Z,28.12
2023-03-27T09:13:02.262Z,28.12
2023-03-27T09:14:02.282Z,28.12
2023-03-27T09:15:02.235Z,28.12
2023-03-27T09:16:02.363Z,33.75
2023-03-27T09:17:02.195Z,28.12
2023-03-27T09:18:02.282Z,28.12
2023-03-27T09:19:02.226Z,33.75
2023-03-27T09:20:02.174Z,45.00
2023-03-27T09:21:02.158Z,50.62
2023-03-27T09:22:02.143Z,39.38
2023-03-27T09:23:02.135Z,33.75
2023-03-27T09:24:02.164Z,33.75
2023-03-27T09:25:02.121Z,39.38
2023-03-27T09:26:02.106Z,56.25
2023-03-27T09:27:07.487Z,90.00
2023-03-27T09:28:03.084Z,95.62
2023-03-27T09:29:02.059Z,73.12
2023-03-27T09:30:04.959Z,73.12
2023-03-27T09:31:02.085Z,84.38
2023-03-27T09:32:02.031Z,90.00
2023-03-27T09:33:02.102Z,112.50
2023-03-27T09:34:02.031Z,123.75
2023-03-27T09:35:02.028Z,196.88
2023-03-27T09:36:02.070Z,315.00
2023-03-27T09:37:01.992Z,315.00
2023-03-27T09:38:01.962Z,230.62
2023-03-27T09:39:01.967Z,230.62
2023-03-27T09:40:02.006Z,135.00
2023-03-27T09:41:01.940Z,208.12
2023-03-27T09:42:07.250Z,101.25
2023-03-27T09:43:02.915Z,84.38
2023-03-27T09:44:01.906Z,73.12
2023-03-27T09:45:01.927Z,78.75
2023-03-27T09:46:01.877Z,106.88
2023-03-27T09:47:01.910Z,140.62
2023-03-27T09:48:01.906Z,123.75
2023-03-27T09:49:01.851Z,146.25
2023-03-27T09:50:01.865Z,129.38
2023-03-27T09:51:01.814Z,135.00
2023-03-27T09:52:01.821Z,225.00
2023-03-27T09:53:01.794Z,219.38
2023-03-27T09:54:01.797Z,208.12
2023-03-27T09:55:01.790Z,208.12
2023-03-27T09:56:03.364Z,208.12
2023-03-27T09:57:01.859Z,213.75
2023-03-27T09:58:01.743Z,219.38
2023-03-27T09:59:01.740Z,264.38
2023-03-27T10:00:01.728Z,286.88
2023-03-27T10:01:01.793Z,281.25
2023-03-27T10:02:01.711Z,230.62
2023-03-27T10:03:01.811Z,106.88
2023-03-27T10:04:01.732Z,90.00
2023-03-27T10:05:01.687Z,84.38
2023-03-27T10:06:01.651Z,78.75
2023-03-27T10:07:01.732Z,101.25
2023-03-27T10:08:01.644Z,298.12
2023-03-27T10:09:01.614Z,286.88
2023-03-27T10:10:01.670Z,185.62
2023-03-27T10:11:01.618Z,67.50
2023-03-27T10:12:01.604Z,61.88
2023-03-27T10:13:01.579Z,67.50
2023-03-27T10:14:01.599Z,73.12
2023-03-27T10:15:01.840Z,73.12
2023-03-27T10:16:01.561Z,208.12
2023-03-27T10:17:01.609Z,208.12
2023-03-27T10:18:01.573Z,213.75
2023-03-27T10:19:01.516Z,247.50
2023-03-27T10:20:01.522Z,315.00
2023-03-27T10:21:01.502Z,292.50
2023-03-27T10:22:01.536Z,191.25
2023-03-27T10:23:01.542Z,112.50
2023-03-27T10:24:01.476Z,73.12
2023-03-27T10:25:01.536Z,56.25
2023-03-27T10:26:01.457Z,56.25
2023-03-27T10:27:01.539Z,50.62
2023-03-27T10:28:01.480Z,45.00
2023-03-27T10:29:01.424Z,50.62
2023-03-27T10:30:01.505Z,73.12
2023-03-27T10:31:01.380Z,101.25
2023-03-27T10:32:01.531Z,95.62
2023-03-27T10:33:01.647Z,219.38
2023-03-27T10:34:01.331Z,90.00
2023-03-27T10:35:01.344Z,146.25
2023-03-27T10:36:01.345Z,275.62
2023-03-27T10:37:01.330Z,326.25
2023-03-27T10:38:01.293Z,309.38
2023-03-27T10:39:01.284Z,292.50
2023-03-27T10:40:01.298Z,135.00
2023-03-27T10:41:01.296Z,129.38
2023-03-27T10:42:01.251Z,157.50
2023-03-27T10:43:01.259Z,123.75
2023-03-27T10:44:01.255Z,73.12
2023-03-27T10:45:01.259Z,56.25
2023-03-27T10:46:01.276Z,45.00
2023-03-27T10:47:01.288Z,39.38
2023-03-27T10:48:01.232Z,39.38
2023-03-27T10:49:01.167Z,45.00
2023-03-27T10:50:01.209Z,56.25
2023-03-27T10:51:01.160Z,50.62
2023-03-27T10:52:01.220Z,67.50
2023-03-27T10:53:01.220Z,90.00
2023-03-27T10:54:01.205Z,95.62
2023-03-27T10:55:01.158Z,208.12
2023-03-27T10:56:01.104Z,213.75
2023-03-27T10:57:01.098Z,95.62
2023-03-27T10:58:01.077Z,208.12
2023-03-27T10:59:01.074Z,208.12
2023-03-27T11:00:01.084Z,208.12
2023-03-27T11:01:01.210Z,208.12
2023-03-27T11:02:01.060Z,219.38
2023-03-27T11:03:01.054Z,241.88
2023-03-27T11:04:01.036Z,258.75
2023-03-27T11:05:01.030Z,241.88
2023-03-27T11:06:00.988Z,236.25
2023-03-27T11:07:00.982Z,230.62
2023-03-27T11:08:00.945Z,230.62
2023-03-27T11:09:00.945Z,264.38
2023-03-27T11:10:00.946Z,303.75
2023-03-27T11:11:00.932Z,461.25
2023-03-27T11:12:00.928Z,438.75
2023-03-27T11:13:00.924Z,315.00
2023-03-27T11:14:00.888Z,236.25
2023-03-27T11:15:00.870Z,253.12
2023-03-27T11:16:00.889Z,270.00
2023-03-27T11:17:00.935Z,270.00
2023-03-27T11:18:00.880Z,253.12
2023-03-27T11:19:00.841Z,253.12
2023-03-27T11:20:00.837Z,270.00
2023-03-27T11:21:00.851Z,264.38
2023-03-27T11:22:00.805Z,146.25
2023-03-27T11:23:00.797Z,236.25
2023-03-27T11:24:00.827Z,225.00
2023-03-27T11:25:00.812Z,230.62
2023-03-27T11:26:00.768Z,168.75
2023-03-27T11:27:00.736Z,129.38
2023-03-27T11:28:00.733Z,106.88
2023-03-27T11:29:00.733Z,84.38
2023-03-27T11:30:00.714Z,61.88
2023-03-27T11:31:00.827Z,50.62
2023-03-27T11:32:01.775Z,56.25
2023-03-27T11:33:00.700Z,73.12
2023-03-27T11:34:00.685Z,118.12
2023-03-27T11:35:02.714Z,157.50
2023-03-27T11:36:00.713Z,106.88
2023-03-27T11:37:00.644Z,95.62
2023-03-27T11:38:00.633Z,95.62
2023-03-27T11:39:00.606Z,101.25
2023-03-27T11:40:00.606Z,123.75
2023-03-27T11:41:00.610Z,95.62
2023-03-27T11:42:00.573Z,112.50
2023-03-27T11:43:00.583Z,135.00
2023-03-27T11:44:00.572Z,123.75
2023-03-27T11:45:00.539Z,202.50
2023-03-27T11:46:00.556Z,140.62
2023-03-27T11:47:00.534Z,191.25
2023-03-27T11:48:00.544Z,241.88
2023-03-27T11:49:00.524Z,219.38
2023-03-27T11:50:00.512Z,213.75
2023-03-27T11:51:00.509Z,151.88
2023-03-27T11:52:00.474Z,208.12
2023-03-27T11:53:00.457Z,241.88
2023-03-27T11:54:00.434Z,236.25
2023-03-27T11:55:00.432Z,219.38
2023-03-27T11:56:00.455Z,208.12
2023-03-27T11:57:00.475Z,191.25
2023-03-27T11:58:00.389Z,123.75
2023-03-27T11:59:00.398Z,118.12
2023-03-27T12:00:00.368Z,106.88
2023-03-27T12:01:00.363Z,95.62
2023-03-27T12:02:00.440Z,101.25
2023-03-27T12:03:00.469Z,84.38
2023-03-27T12:04:00.519Z,56.25
2023-03-27T12:05:00.323Z,39.38
2023-03-27T12:06:00.338Z,28.12
2023-03-27T12:07:04.818Z,16.88
2023-03-27T12:08:01.287Z,11.25
2023-03-27T12:09:00.283Z,11.25
2023-03-27T12:10:00.255Z,11.25
2023-03-27T12:11:00.294Z,11.25
2023-03-27T12:12:00.258Z,11.25
2023-03-27T12:13:00.259Z,11.25
2023-03-27T12:14:02.265Z,16.88
2023-03-27T12:15:00.211Z,16.88
2023-03-27T12:16:00.251Z,22.50
2023-03-27T12:17:00.178Z,22.50
2023-03-27T12:18:00.324Z,28.12
2023-03-27T12:19:05.997Z,28.12
2023-03-27T12:20:01.288Z,28.12
2023-03-27T12:21:00.385Z,33.75
2023-03-27T12:22:00.129Z,50.62
2023-03-27T12:23:00.108Z,67.50
2023-03-27T12:24:00.144Z,84.38
2023-03-27T12:25:00.350Z,112.50
2023-03-27T12:26:00.118Z,157.50
2023-03-27T12:27:00.136Z,213.75
2023-03-27T12:28:00.086Z,196.88
2023-03-27T12:29:00.084Z,135.00
2023-03-27T12:30:00.052Z,180.00
2023-03-27T12:31:00.027Z,191.25
2023-03-27T12:32:00.053Z,163.12
2023-03-27T12:33:00.415Z,140.62
2023-03-27T12:34:00.002Z,163.12
2023-03-27T12:35:00.020Z,140.62
2023-03-27T12:36:00.018Z,112.50
2023-03-27T12:36:59.986Z,95.62
2023-03-27T12:37:59.982Z,73.12
2023-03-27T12:38:59.959Z,84.38
2023-03-27T12:39:59.927Z,101.25
2023-03-27T12:40:59.920Z,112.50
2023-03-27T12:41:59.908Z,129.38
2023-03-27T12:42:59.905Z,123.75
2023-03-27T12:43:59.907Z,112.50
2023-03-27T12:45:00.085Z,106.88
2023-03-27T12:45:59.872Z,106.88
2023-03-27T12:46:59.864Z,112.50
2023-03-27T12:48:00.072Z,118.12
2023-03-27T12:48:59.815Z,118.12
2023-03-27T12:49:59.811Z,163.12
2023-03-27T12:51:00.256Z,180.00
2023-03-27T12:51:59.903Z,157.50
2023-03-27T12:52:59.810Z,163.12
2023-03-27T12:53:59.756Z,191.25
2023-03-27T12:54:59.760Z,185.62
2023-03-27T12:55:59.735Z,118.12